createdAt,value
2018-03-16T00:01:00.476Z,7.1
2018-03-16T00:01:42.794Z,7.04
2018-03-16T00:02:51.713Z,7.04
2018-03-16T00:03:40.016Z,7.1
2018-03-16T00:04:40.004Z,7.09
2018-03-16T00:05:39.998Z,7.11
2018-03-16T00:06:40.006Z,7.11
2018-03-16T00:07:40.020Z,7.08
2018-03-16T00:08:40.033Z,7.05
2018-03-16T00:09:40.038Z,7.06
2018-03-16T00:10:40.015Z,7.13
2018-03-16T00:11:40.021Z,7.08
2018-03-16T00:12:40.028Z,7.18
2018-03-16T00:13:40.022Z,7.22
2018-03-16T00:14:40.030Z,7.13
2018-03-16T00:15:40.043Z,7.06
2018-03-16T00:16:40.053Z,7.04
2018-03-16T00:17:40.054Z,7.02
2018-03-16T00:18:40.064Z,7.12
2018-03-16T00:19:40.102Z,7.15
2018-03-16T00:20:40.073Z,7.12
2018-03-16T00:21:40.068Z,7.07
2018-03-16T00:22:40.117Z,7.09
2018-03-16T00:23:40.084Z,7.11
2018-03-16T00:24:40.111Z,7.06
2018-03-16T00:25:40.495Z,7.09
2018-03-16T00:26:40.088Z,7.07
2018-03-16T00:27:40.068Z,7.08
2018-03-16T00:28:40.239Z,7.14
2018-03-16T00:29:40.102Z,7.16
2018-03-16T00:30:40.085Z,7.08
2018-03-16T00:31:40.091Z,7.08
2018-03-16T00:32:40.099Z,7.06
2018-03-16T00:33:40.137Z,7.1
2018-03-16T00:34:40.099Z,7.15
2018-03-16T00:35:40.114Z,7.07
2018-03-16T00:36:40.123Z,7.04
2018-03-16T00:37:40.125Z,7.05
2018-03-16T00:38:40.146Z,7.12
2018-03-16T00:39:40.120Z,7.08
2018-03-16T00:40:40.126Z,7.11
2018-03-16T00:41:40.172Z,7.09
2018-03-16T00:42:40.185Z,7.16
2018-03-16T00:43:40.177Z,7.13
2018-03-16T00:44:40.143Z,7.08
2018-03-16T00:45:40.146Z,7.06
2018-03-16T00:46:40.175Z,7.04
2018-03-16T00:47:40.151Z,7.06
2018-03-16T00:48:40.179Z,7.14
2018-03-16T00:49:40.179Z,7.09
2018-03-16T00:50:40.167Z,7.08
2018-03-16T00:51:40.169Z,7.08
2018-03-16T00:52:40.174Z,7.12
2018-03-16T00:53:40.293Z,7.11
2018-03-16T00:54:40.177Z,7.1
2018-03-16T00:55:40.178Z,7.07
2018-03-16T00:56:40.179Z,7.09
2018-03-16T00:57:40.219Z,7.1
2018-03-16T00:58:40.335Z,7.13
2018-03-16T00:59:40.195Z,7.08
2018-03-16T01:00:40.176Z,7.1
2018-03-16T01:01:40.169Z,7.05
2018-03-16T01:02:40.184Z,7.07
2018-03-16T01:03:40.228Z,7.07
2018-03-16T01:04:40.194Z,7.15
2018-03-16T01:05:40.223Z,7.08
2018-03-16T01:06:40.222Z,7.09
2018-03-16T01:07:40.208Z,7.07
2018-03-16T01:08:40.221Z,7.1
2018-03-16T01:09:40.211Z,7.11
2018-03-16T01:10:40.224Z,7.04
2018-03-16T01:11:40.236Z,7.09
2018-03-16T01:12:40.232Z,7.08
2018-03-16T01:13:40.222Z,7.11
2018-03-16T01:14:40.262Z,7.08
2018-03-16T01:15:40.241Z,7.08
2018-03-16T01:16:40.307Z,7.12
2018-03-16T01:17:40.252Z,7.1
2018-03-16T01:18:40.272Z,7.13
2018-03-16T01:19:40.273Z,7.11
2018-03-16T01:20:40.273Z,7.1
2018-03-16T01:21:40.306Z,7.14
2018-03-16T01:22:40.286Z,7.15
2018-03-16T01:23:40.303Z,7.12
2018-03-16T01:24:40.340Z,7.13
2018-03-16T01:25:40.302Z,7.13
2018-03-16T01:26:40.290Z,7.14
2018-03-16T01:27:40.308Z,7.14
2018-03-16T01:28:40.306Z,7.12
2018-03-16T01:29:40.333Z,7.09
2018-03-16T01:30:40.322Z,7.2
2018-03-16T01:31:40.327Z,7.15
2018-03-16T01:32:40.330Z,7.11
2018-03-16T01:33:40.327Z,7.1
2018-03-16T01:34:40.352Z,7.11
2018-03-16T01:35:40.352Z,7.16
2018-03-16T01:36:40.327Z,7.13
2018-03-16T01:37:40.407Z,7.15
2018-03-16T01:38:40.334Z,7.16
2018-03-16T01:39:40.351Z,7.12
2018-03-16T01:40:40.350Z,7.24
2018-03-16T01:41:40.348Z,7.16
2018-03-16T01:42:40.350Z,7.29
2018-03-16T01:43:40.368Z,7.23
2018-03-16T01:44:40.373Z,7.24
2018-03-16T01:45:40.396Z,7.25
2018-03-16T01:46:40.362Z,7.26
2018-03-16T01:47:40.379Z,7.25
2018-03-16T01:48:40.368Z,7.18
2018-03-16T01:49:40.387Z,7.16
2018-03-16T01:50:40.406Z,7.25
2018-03-16T01:51:40.376Z,7.29
2018-03-16T01:52:40.415Z,7.21
2018-03-16T01:53:40.371Z,7.18
2018-03-16T01:54:40.382Z,7.23
2018-03-16T01:55:40.387Z,7.29
2018-03-16T01:56:40.403Z,7.32
2018-03-16T01:57:40.391Z,7.26
2018-03-16T01:58:40.448Z,7.28
2018-03-16T01:59:40.399Z,7.18
2018-03-16T02:00:40.423Z,7.2
2018-03-16T02:01:40.396Z,7.18
2018-03-16T02:02:40.400Z,7.22
2018-03-16T02:03:40.389Z,7.27
2018-03-16T02:04:40.412Z,7.29
2018-03-16T02:05:40.397Z,7.32
2018-03-16T02:06:40.412Z,7.32
2018-03-16T02:07:40.413Z,7.28
2018-03-16T02:08:40.417Z,7.22
2018-03-16T02:09:40.432Z,7.25
2018-03-16T02:10:40.431Z,7.22
2018-03-16T02:11:40.496Z,7.16
2018-03-16T02:12:40.431Z,7.18
2018-03-16T02:13:40.439Z,7.23
2018-03-16T02:14:40.450Z,7.21
2018-03-16T02:15:40.475Z,7.19
2018-03-16T02:16:40.446Z,7.21
2018-03-16T02:17:40.451Z,7.2
2018-03-16T02:18:40.440Z,7.19
2018-03-16T02:19:40.455Z,7.23
2018-03-16T02:20:40.477Z,7.19
2018-03-16T02:21:40.471Z,7.18
2018-03-16T02:22:40.475Z,7.18
2018-03-16T02:23:40.466Z,7.18
2018-03-16T02:24:40.503Z,7.18
2018-03-16T02:25:40.491Z,7.22
2018-03-16T02:26:40.473Z,7.24
2018-03-16T02:27:40.480Z,7.19
2018-03-16T02:28:40.491Z,7.27
2018-03-16T02:29:40.480Z,7.19
2018-03-16T02:30:40.567Z,7.18
2018-03-16T02:31:40.495Z,7.14
2018-03-16T02:32:40.500Z,7.16
2018-03-16T02:33:40.542Z,7.28
2018-03-16T02:34:40.518Z,7.24
2018-03-16T02:35:40.551Z,7.21
2018-03-16T02:36:40.538Z,7.18
2018-03-16T02:37:40.536Z,7.17
2018-03-16T02:38:40.564Z,7.23
2018-03-16T02:39:40.515Z,7.22
2018-03-16T02:40:40.591Z,7.23
2018-03-16T02:41:40.535Z,7.18
2018-03-16T02:42:40.549Z,7.16
2018-03-16T02:43:40.527Z,7.19
2018-03-16T02:44:40.544Z,7.21
2018-03-16T02:45:40.571Z,7.21
2018-03-16T02:46:40.535Z,7.23
2018-03-16T02:47:40.542Z,7.21
2018-03-16T02:48:40.550Z,7.19
2018-03-16T02:49:40.537Z,7.16
2018-03-16T02:50:40.598Z,7.22
2018-03-16T02:51:40.572Z,7.2
2018-03-16T02:52:40.569Z,7.2
2018-03-16T02:53:40.630Z,7.28
2018-03-16T02:54:40.557Z,7.21
2018-03-16T02:55:40.586Z,7.19
2018-03-16T02:56:40.555Z,7.25
2018-03-16T02:57:40.571Z,7.23
2018-03-16T02:58:40.648Z,7.23
2018-03-16T02:59:40.604Z,7.23
2018-03-16T03:00:40.610Z,7.24
2018-03-16T03:01:40.625Z,7.24
2018-03-16T03:02:40.613Z,7.27
2018-03-16T03:03:40.623Z,7.25
2018-03-16T03:04:40.622Z,7.27
2018-03-16T03:05:40.620Z,7.27
2018-03-16T03:06:40.678Z,7.28
2018-03-16T03:07:40.641Z,7.28
2018-03-16T03:08:40.653Z,7.26
2018-03-16T03:09:40.640Z,7.28
2018-03-16T03:10:40.642Z,7.26
2018-03-16T03:11:40.653Z,7.26
2018-03-16T03:12:40.628Z,7.25
2018-03-16T03:13:40.649Z,7.28
2018-03-16T03:14:40.618Z,7.28
2018-03-16T03:15:40.704Z,7.26
2018-03-16T03:16:40.645Z,7.25
2018-03-16T03:17:40.645Z,7.3
2018-03-16T03:18:40.716Z,7.28
2018-03-16T03:19:40.641Z,7.33
2018-03-16T03:20:40.679Z,7.29
2018-03-16T03:21:40.878Z,7.37
2018-03-16T03:22:40.659Z,7.34
2018-03-16T03:23:40.666Z,7.3
2018-03-16T03:24:40.671Z,7.28
2018-03-16T03:25:40.701Z,7.25
2018-03-16T03:26:40.707Z,7.25
2018-03-16T03:27:40.663Z,7.19
2018-03-16T03:28:40.668Z,7.26
2018-03-16T03:29:40.664Z,7.24
2018-03-16T03:30:40.693Z,7.22
2018-03-16T03:31:40.699Z,7.25
2018-03-16T03:32:40.696Z,7.31
2018-03-16T03:33:40.685Z,7.29
2018-03-16T03:34:40.693Z,7.34
2018-03-16T03:35:40.689Z,7.36
2018-03-16T03:36:40.708Z,7.31
2018-03-16T03:37:40.712Z,7.31
2018-03-16T03:38:40.707Z,7.37
2018-03-16T03:39:40.746Z,7.31
2018-03-16T03:40:40.713Z,7.32
2018-03-16T03:41:40.769Z,7.36
2018-03-16T03:42:40.712Z,7.3
2018-03-16T03:43:40.721Z,7.24
2018-03-16T03:44:40.731Z,7.3
2018-03-16T03:45:40.737Z,7.33
2018-03-16T03:46:40.735Z,7.37
2018-03-16T03:47:40.741Z,7.32
2018-03-16T03:48:40.758Z,7.3
2018-03-16T03:49:40.739Z,7.35
2018-03-16T03:50:40.758Z,7.27
2018-03-16T03:51:40.764Z,7.33
2018-03-16T03:52:40.762Z,7.36
2018-03-16T03:53:40.769Z,7.28
2018-03-16T03:54:40.759Z,7.32
2018-03-16T03:55:40.746Z,7.3
2018-03-16T03:56:40.755Z,7.33
2018-03-16T03:57:40.752Z,7.32
2018-03-16T03:58:41.044Z,7.35
2018-03-16T03:59:40.822Z,7.31
2018-03-16T04:00:40.777Z,7.33
2018-03-16T04:01:40.772Z,7.3
2018-03-16T04:02:40.935Z,7.27
2018-03-16T04:03:40.783Z,7.25
2018-03-16T04:04:40.785Z,7.25
2018-03-16T04:05:40.791Z,7.29
2018-03-16T04:06:40.787Z,7.29
2018-03-16T04:07:40.817Z,7.29
2018-03-16T04:08:40.830Z,7.25
2018-03-16T04:09:40.802Z,7.25
2018-03-16T04:10:40.797Z,7.22
2018-03-16T04:11:40.802Z,7.21
2018-03-16T04:12:40.813Z,7.23
2018-03-16T04:13:40.799Z,7.25
2018-03-16T04:14:40.785Z,7.29
2018-03-16T04:15:40.792Z,7.33
2018-03-16T04:16:40.798Z,7.26
2018-03-16T04:17:40.804Z,7.28
2018-03-16T04:18:40.834Z,7.29
2018-03-16T04:19:40.823Z,7.25
2018-03-16T04:20:40.796Z,7.33
2018-03-16T04:21:40.816Z,7.34
2018-03-16T04:22:40.806Z,7.31
2018-03-16T04:23:40.801Z,7.31
2018-03-16T04:24:40.865Z,7.3
2018-03-16T04:25:40.824Z,7.33
2018-03-16T04:26:40.812Z,7.28
2018-03-16T04:27:40.834Z,7.29
2018-03-16T04:28:40.834Z,7.32
2018-03-16T04:29:40.932Z,7.31
2018-03-16T04:30:40.836Z,7.29
2018-03-16T04:31:40.854Z,7.27
2018-03-16T04:32:40.854Z,7.31
2018-03-16T04:33:40.859Z,7.32
2018-03-16T04:34:40.888Z,7.28
2018-03-16T04:35:40.863Z,7.3
2018-03-16T04:36:40.866Z,7.27
2018-03-16T04:37:40.891Z,7.35
2018-03-16T04:38:40.882Z,7.33
2018-03-16T04:39:40.877Z,7.33
2018-03-16T04:40:40.884Z,7.29
2018-03-16T04:41:41.046Z,7.28
2018-03-16T04:42:40.899Z,7.32
2018-03-16T04:43:40.894Z,7.27
2018-03-16T04:44:40.897Z,7.26
2018-03-16T04:45:40.911Z,7.32
2018-03-16T04:46:40.943Z,7.28
2018-03-16T04:47:40.935Z,7.27
2018-03-16T04:48:40.936Z,7.26
2018-03-16T04:49:40.912Z,7.29
2018-03-16T04:50:40.923Z,7.29
2018-03-16T04:51:40.935Z,7.28
2018-03-16T04:52:40.924Z,7.32
2018-03-16T04:53:40.937Z,7.28
2018-03-16T04:54:40.970Z,7.37
2018-03-16T04:55:40.920Z,7.38
2018-03-16T04:56:40.973Z,7.29
2018-03-16T04:57:40.964Z,7.29
2018-03-16T04:58:40.952Z,7.29
2018-03-16T04:59:40.954Z,7.27
2018-03-16T05:00:40.945Z,7.24
2018-03-16T05:01:40.983Z,7.26
2018-03-16T05:02:40.994Z,7.25
2018-03-16T05:03:40.993Z,7.33
2018-03-16T05:04:40.943Z,7.31
2018-03-16T05:05:40.962Z,7.32
2018-03-16T05:06:40.956Z,7.3
2018-03-16T05:07:40.990Z,7.28
2018-03-16T05:08:41.024Z,7.28
2018-03-16T05:09:41.000Z,7.26
2018-03-16T05:10:40.983Z,7.31
2018-03-16T05:11:40.997Z,7.31
2018-03-16T05:12:41.010Z,7.29
2018-03-16T05:13:40.997Z,7.27
2018-03-16T05:14:41.076Z,7.24
2018-03-16T05:15:41.530Z,7.28
2018-03-16T05:16:41.017Z,7.28
2018-03-16T05:17:41.015Z,7.26
2018-03-16T05:18:41.088Z,7.27
2018-03-16T05:19:41.019Z,7.29
2018-03-16T05:20:41.041Z,7.24
2018-03-16T05:21:41.047Z,7.24
2018-03-16T05:22:41.039Z,7.29
2018-03-16T05:23:41.063Z,7.27
2018-03-16T05:24:41.258Z,7.27
2018-03-16T05:25:41.717Z,7.3
2018-03-16T05:26:41.077Z,7.28
2018-03-16T05:27:41.064Z,7.3
2018-03-16T05:28:41.072Z,7.28
2018-03-16T05:29:41.067Z,7.36
2018-03-16T05:30:41.160Z,7.37
2018-03-16T05:31:41.088Z,7.3
2018-03-16T05:32:41.067Z,7.33
2018-03-16T05:33:41.077Z,7.39
2018-03-16T05:34:41.074Z,7.34
2018-03-16T05:35:41.071Z,7.26
2018-03-16T05:36:41.343Z,7.3
2018-03-16T05:37:41.119Z,7.27
2018-03-16T05:38:41.098Z,7.3
2018-03-16T05:39:41.126Z,7.29
2018-03-16T05:40:41.375Z,7.28
2018-03-16T05:41:41.136Z,7.26
2018-03-16T05:42:41.129Z,7.36
2018-03-16T05:43:41.100Z,7.31
2018-03-16T05:44:41.110Z,7.32
2018-03-16T05:45:41.120Z,7.32
2018-03-16T05:46:41.121Z,7.27
2018-03-16T05:47:41.125Z,7.26
2018-03-16T05:48:41.118Z,7.25
2018-03-16T05:49:41.133Z,7.24
2018-03-16T05:50:41.139Z,7.22
2018-03-16T05:51:41.130Z,7.22
2018-03-16T05:52:41.159Z,7.21
2018-03-16T05:53:41.203Z,7.22
2018-03-16T05:54:41.154Z,7.21
2018-03-16T05:55:41.146Z,7.21
2018-03-16T05:56:41.203Z,7.2
2018-03-16T05:57:41.309Z,7.22
2018-03-16T05:58:41.209Z,7.24
2018-03-16T05:59:41.151Z,7.28
2018-03-16T06:00:41.399Z,7.22
2018-03-16T06:01:41.168Z,7.2
2018-03-16T06:02:41.195Z,7.19
2018-03-16T06:03:41.218Z,7.22
2018-03-16T06:04:41.188Z,7.23
2018-03-16T06:05:41.190Z,7.22
2018-03-16T06:06:41.188Z,7.18
2018-03-16T06:07:41.221Z,7.17
2018-03-16T06:08:41.205Z,7.13
2018-03-16T06:09:41.192Z,7.18
2018-03-16T06:10:41.192Z,7.18
2018-03-16T06:11:41.226Z,7.16
2018-03-16T06:12:41.219Z,7.14
2018-03-16T06:13:41.213Z,7.17
2018-03-16T06:14:41.195Z,7.18
2018-03-16T06:15:41.205Z,7.17
2018-03-16T06:16:41.230Z,7.17
2018-03-16T06:17:41.268Z,7.16
2018-03-16T06:18:41.653Z,7.18
2018-03-16T06:19:41.222Z,7.17
2018-03-16T06:20:41.209Z,7.19
2018-03-16T06:21:41.216Z,7.16
2018-03-16T06:22:41.233Z,7.24
2018-03-16T06:23:41.312Z,7.23
2018-03-16T06:24:41.308Z,7.23
2018-03-16T06:25:41.256Z,7.26
2018-03-16T06:26:41.242Z,7.26
2018-03-16T06:27:41.244Z,7.24
2018-03-16T06:28:41.262Z,7.25
2018-03-16T06:29:41.262Z,7.26
2018-03-16T06:30:41.277Z,7.25
2018-03-16T06:31:41.259Z,7.22
2018-03-16T06:32:41.264Z,7.24
2018-03-16T06:33:41.267Z,7.3
2018-03-16T06:34:41.301Z,7.29
2018-03-16T06:35:41.277Z,7.28
2018-03-16T06:36:41.290Z,7.27
2018-03-16T06:37:41.280Z,7.26
2018-03-16T06:38:41.294Z,7.26
2018-03-16T06:39:41.350Z,7.25
2018-03-16T06:40:41.309Z,7.25
2018-03-16T06:41:41.328Z,7.28
2018-03-16T06:42:41.348Z,7.27
2018-03-16T06:43:41.310Z,7.25
2018-03-16T06:44:42.544Z,7.26
2018-03-16T06:45:41.353Z,7.24
2018-03-16T06:46:41.353Z,7.23
2018-03-16T06:47:41.347Z,7.25
2018-03-16T06:48:41.314Z,7.26
2018-03-16T06:49:41.314Z,7.25
2018-03-16T06:50:41.321Z,7.3
2018-03-16T06:51:41.445Z,7.28
2018-03-16T06:52:41.341Z,7.3
2018-03-16T06:53:41.389Z,7.31
2018-03-16T06:54:41.349Z,7.27
2018-03-16T06:55:41.389Z,7.29
2018-03-16T06:56:41.391Z,7.32
2018-03-16T06:57:41.363Z,7.31
2018-03-16T06:58:41.379Z,7.31
2018-03-16T06:59:41.353Z,7.33
2018-03-16T07:00:41.351Z,7.34
2018-03-16T07:01:41.350Z,7.32
2018-03-16T07:02:41.377Z,7.27
2018-03-16T07:03:41.389Z,7.3
2018-03-16T07:04:41.379Z,7.33
2018-03-16T07:05:41.418Z,7.33
2018-03-16T07:06:41.368Z,7.35
2018-03-16T07:07:41.393Z,7.34
2018-03-16T07:08:41.398Z,7.38
2018-03-16T07:09:41.392Z,7.31
2018-03-16T07:10:41.434Z,7.4
2018-03-16T07:11:41.417Z,7.37
2018-03-16T07:12:41.531Z,7.36
2018-03-16T07:13:41.402Z,7.38
2018-03-16T07:14:41.425Z,7.38
2018-03-16T07:15:41.427Z,7.38
2018-03-16T07:16:41.391Z,7.39
2018-03-16T07:17:41.415Z,7.35
2018-03-16T07:18:41.406Z,7.35
2018-03-16T07:19:41.518Z,7.37
2018-03-16T07:20:41.445Z,7.35
2018-03-16T07:21:41.410Z,7.36
2018-03-16T07:22:41.445Z,7.36
2018-03-16T07:23:41.439Z,7.32
2018-03-16T07:24:41.447Z,7.35
2018-03-16T07:25:41.460Z,7.36
2018-03-16T07:26:41.447Z,7.37
2018-03-16T07:27:41.448Z,7.39
2018-03-16T07:28:41.557Z,7.39
2018-03-16T07:29:41.555Z,7.41
2018-03-16T07:30:41.528Z,7.4
2018-03-16T07:31:41.457Z,7.41
2018-03-16T07:32:41.475Z,7.39
2018-03-16T07:33:41.477Z,7.38
2018-03-16T07:34:41.462Z,7.4
2018-03-16T07:35:41.462Z,7.41
2018-03-16T07:36:41.495Z,7.45
2018-03-16T07:37:41.474Z,7.41
2018-03-16T07:38:41.498Z,7.45
2018-03-16T07:39:41.482Z,7.42
2018-03-16T07:40:41.474Z,7.43
2018-03-16T07:41:41.509Z,7.4
2018-03-16T07:42:41.490Z,7.38
2018-03-16T07:43:41.507Z,7.38
2018-03-16T07:44:41.497Z,7.41
2018-03-16T07:45:41.514Z,7.41
2018-03-16T07:46:41.554Z,7.41
2018-03-16T07:47:41.509Z,7.39
2018-03-16T07:48:41.519Z,7.41
2018-03-16T07:49:41.513Z,7.43
2018-03-16T07:50:41.577Z,7.4
2018-03-16T07:51:41.535Z,7.41
2018-03-16T07:52:42.105Z,7.39
2018-03-16T07:53:41.529Z,7.38
2018-03-16T07:54:41.516Z,7.41
2018-03-16T07:55:41.705Z,7.42
2018-03-16T07:56:41.560Z,7.42
2018-03-16T07:57:41.525Z,7.43
2018-03-16T07:58:41.523Z,7.39
2018-03-16T07:59:41.545Z,7.42
2018-03-16T08:00:41.550Z,7.45
2018-03-16T08:01:41.565Z,7.44
2018-03-16T08:02:41.545Z,7.44
2018-03-16T08:03:41.574Z,7.44
2018-03-16T08:04:41.560Z,7.46
2018-03-16T08:05:41.577Z,7.45
2018-03-16T08:06:41.606Z,7.43
2018-03-16T08:07:41.556Z,7.43
2018-03-16T08:08:41.741Z,7.47
2018-03-16T08:09:41.584Z,7.45
2018-03-16T08:10:41.596Z,7.49
2018-03-16T08:11:41.600Z,7.46
2018-03-16T08:12:41.612Z,7.49
2018-03-16T08:13:41.584Z,7.5
2018-03-16T08:14:41.591Z,7.52
2018-03-16T08:15:41.578Z,7.57
2018-03-16T08:16:41.633Z,7.55
2018-03-16T08:17:41.580Z,7.54
2018-03-16T08:18:41.611Z,7.52
2018-03-16T08:19:41.594Z,7.52
2018-03-16T08:20:41.627Z,7.5
2018-03-16T08:21:41.625Z,7.53
2018-03-16T08:22:41.619Z,7.54
2018-03-16T08:23:41.643Z,7.54
2018-03-16T08:24:41.626Z,7.54
2018-03-16T08:25:41.606Z,7.52
2018-03-16T08:26:41.629Z,7.55
2018-03-16T08:27:41.618Z,7.55
2018-03-16T08:28:41.647Z,7.57
2018-03-16T08:29:41.627Z,7.58
2018-03-16T08:30:41.623Z,7.56
2018-03-16T08:31:41.649Z,7.51
2018-03-16T08:32:41.641Z,7.54
2018-03-16T08:33:41.653Z,7.54
2018-03-16T08:34:41.662Z,7.55
2018-03-16T08:35:41.634Z,7.55
2018-03-16T08:36:41.658Z,7.54
2018-03-16T08:37:41.655Z,7.54
2018-03-16T08:38:41.664Z,7.53
2018-03-16T08:39:41.646Z,7.6
2018-03-16T08:40:41.663Z,7.57
2018-03-16T08:41:41.656Z,7.55
2018-03-16T08:42:41.671Z,7.54
2018-03-16T08:43:41.924Z,7.52
2018-03-16T08:44:41.650Z,7.51
2018-03-16T08:45:41.663Z,7.52
2018-03-16T08:46:41.677Z,7.57
2018-03-16T08:47:41.668Z,7.61
2018-03-16T08:48:41.707Z,7.59
2018-03-16T08:49:41.680Z,7.57
2018-03-16T08:50:41.689Z,7.59
2018-03-16T08:51:41.727Z,7.59
2018-03-16T08:52:41.704Z,7.6
2018-03-16T08:53:41.732Z,7.61
2018-03-16T08:54:41.699Z,7.63
2018-03-16T08:55:41.719Z,7.63
2018-03-16T08:56:41.713Z,7.63
2018-03-16T08:57:41.719Z,7.61
2018-03-16T08:58:41.753Z,7.63
2018-03-16T08:59:41.894Z,7.63
2018-03-16T09:00:41.731Z,7.66
2018-03-16T09:01:41.727Z,7.65
2018-03-16T09:02:41.733Z,7.66
2018-03-16T09:03:41.760Z,7.66
2018-03-16T09:04:41.742Z,7.68
2018-03-16T09:05:41.738Z,7.71
2018-03-16T09:06:41.742Z,7.71
2018-03-16T09:07:41.752Z,7.69
2018-03-16T09:08:41.782Z,7.69
2018-03-16T09:09:41.762Z,7.69
2018-03-16T09:10:41.757Z,7.7
2018-03-16T09:11:41.765Z,7.72
2018-03-16T09:12:41.938Z,7.72
2018-03-16T09:13:41.767Z,7.71
2018-03-16T09:14:41.808Z,7.71
2018-03-16T09:15:41.779Z,7.73
2018-03-16T09:16:41.766Z,7.74
2018-03-16T09:17:41.780Z,7.74
2018-03-16T09:18:41.818Z,7.77
2018-03-16T09:19:41.808Z,7.75
2018-03-16T09:20:41.781Z,7.77
2018-03-16T09:21:41.775Z,7.74
2018-03-16T09:22:41.795Z,7.75
2018-03-16T09:23:41.801Z,7.75
2018-03-16T09:24:41.827Z,7.78
2018-03-16T09:25:41.811Z,7.77
2018-03-16T09:26:41.814Z,7.76
2018-03-16T09:27:41.796Z,7.75
2018-03-16T09:28:41.812Z,7.76
2018-03-16T09:29:42.096Z,7.74
2018-03-16T09:30:41.823Z,7.8
2018-03-16T09:31:41.846Z,7.8
2018-03-16T09:32:42.052Z,7.76
2018-03-16T09:33:41.821Z,7.77
2018-03-16T09:34:41.854Z,7.8
2018-03-16T09:35:41.924Z,7.79
2018-03-16T09:36:41.826Z,7.79
2018-03-16T09:37:41.842Z,7.8
2018-03-16T09:38:41.839Z,7.82
2018-03-16T09:39:41.867Z,7.77
2018-03-16T09:40:41.849Z,7.81
2018-03-16T09:41:41.866Z,7.81
2018-03-16T09:42:41.843Z,7.84
2018-03-16T09:43:41.902Z,7.82
2018-03-16T09:44:41.875Z,7.83
2018-03-16T09:45:41.906Z,7.81
2018-03-16T09:46:41.861Z,7.82
2018-03-16T09:47:41.885Z,7.85
2018-03-16T09:48:41.889Z,7.82
2018-03-16T09:49:41.921Z,7.84
2018-03-16T09:50:42.096Z,7.83
2018-03-16T09:51:41.892Z,7.87
2018-03-16T09:52:41.902Z,7.85
2018-03-16T09:53:41.900Z,7.86
2018-03-16T09:54:41.920Z,7.84
2018-03-16T09:55:41.894Z,7.85
2018-03-16T09:56:42.180Z,7.84
2018-03-16T09:57:41.926Z,7.86
2018-03-16T09:58:41.917Z,7.9
2018-03-16T09:59:41.933Z,7.88
2018-03-16T10:00:41.933Z,7.87
2018-03-16T10:01:41.949Z,7.87
2018-03-16T10:02:41.933Z,7.88
2018-03-16T10:03:41.963Z,7.87
2018-03-16T10:04:41.936Z,7.9
2018-03-16T10:05:41.933Z,7.9
2018-03-16T10:06:41.950Z,7.88
2018-03-16T10:07:41.976Z,7.89
2018-03-16T10:08:41.931Z,7.84
2018-03-16T10:09:41.971Z,7.9
2018-03-16T10:10:41.951Z,7.92
2018-03-16T10:11:41.958Z,7.89
2018-03-16T10:12:41.951Z,7.9
2018-03-16T10:13:41.958Z,7.89
2018-03-16T10:14:41.957Z,7.89
2018-03-16T10:15:41.968Z,7.9
2018-03-16T10:16:41.990Z,7.89
2018-03-16T10:17:42.139Z,7.89
2018-03-16T10:18:41.975Z,7.9
2018-03-16T10:19:42.288Z,7.92
2018-03-16T10:20:42.006Z,7.92
2018-03-16T10:21:41.983Z,7.89
2018-03-16T10:22:41.969Z,7.9
2018-03-16T10:23:41.993Z,8.01
2018-03-16T10:24:41.994Z,7.92
2018-03-16T10:25:42.118Z,8.01
2018-03-16T10:26:41.984Z,8.07
2018-03-16T10:27:42.033Z,8.05
2018-03-16T10:28:41.976Z,8.09
2018-03-16T10:29:41.988Z,8.05
2018-03-16T10:30:41.980Z,8.04
2018-03-16T10:31:42.009Z,8.12
2018-03-16T10:32:41.995Z,8.14
2018-03-16T10:33:42.011Z,8.18
2018-03-16T10:34:42.014Z,8.16
2018-03-16T10:35:42.024Z,8.15
2018-03-16T10:36:42.013Z,8.2
2018-03-16T10:37:42.024Z,8.16
2018-03-16T10:38:42.019Z,8.22
2018-03-16T10:39:42.090Z,8.2
2018-03-16T10:40:42.036Z,8.29
2018-03-16T10:41:42.032Z,8.32
2018-03-16T10:42:42.126Z,8.27
2018-03-16T10:43:42.020Z,8.26
2018-03-16T10:44:42.026Z,8.35
2018-03-16T10:45:42.331Z,8.33
2018-03-16T10:46:42.051Z,8.29
2018-03-16T10:47:42.037Z,8.24
2018-03-16T10:48:42.032Z,8.26
2018-03-16T10:49:42.038Z,8.28
2018-03-16T10:50:42.064Z,8.39
2018-03-16T10:51:42.052Z,8.33
2018-03-16T10:52:42.057Z,8.31
2018-03-16T10:53:42.049Z,8.28
2018-03-16T10:54:42.052Z,8.22
2018-03-16T10:55:42.136Z,8.2
2018-03-16T10:56:42.079Z,8.29
2018-03-16T10:57:42.127Z,8.45
2018-03-16T10:58:42.066Z,8.44
2018-03-16T10:59:42.102Z,8.52
2018-03-16T11:00:42.178Z,8.59
2018-03-16T11:01:42.088Z,8.45
2018-03-16T11:02:42.138Z,8.5
2018-03-16T11:03:42.101Z,8.46
2018-03-16T11:04:42.108Z,8.41
2018-03-16T11:05:42.100Z,8.38
2018-03-16T11:06:42.302Z,8.46
2018-03-16T11:07:42.114Z,8.31
2018-03-16T11:08:42.102Z,8.22
2018-03-16T11:09:42.112Z,8.29
2018-03-16T11:10:42.120Z,8.32
2018-03-16T11:11:42.413Z,8.29
2018-03-16T11:12:42.107Z,8.29
2018-03-16T11:13:42.122Z,8.28
2018-03-16T11:14:42.130Z,8.27
2018-03-16T11:15:42.112Z,8.29
2018-03-16T11:16:42.151Z,8.37
2018-03-16T11:17:42.133Z,8.25
2018-03-16T11:18:42.119Z,8.24
2018-03-16T11:19:42.119Z,8.27
2018-03-16T11:20:42.129Z,8.3
2018-03-16T11:21:42.121Z,8.28
2018-03-16T11:22:42.116Z,8.26
2018-03-16T11:23:42.136Z,8.29
2018-03-16T11:24:42.181Z,8.29
2018-03-16T11:25:42.140Z,8.31
2018-03-16T11:26:42.162Z,8.27
2018-03-16T11:27:42.164Z,8.3
2018-03-16T11:28:42.138Z,8.3
2018-03-16T11:29:42.278Z,8.39
2018-03-16T11:30:42.181Z,8.51
2018-03-16T11:31:42.170Z,8.45
2018-03-16T11:32:42.149Z,8.4
2018-03-16T11:33:42.142Z,8.38
2018-03-16T11:34:42.146Z,8.47
2018-03-16T11:35:42.139Z,8.49
2018-03-16T11:36:42.286Z,8.44
2018-03-16T11:37:42.160Z,8.46
2018-03-16T11:38:42.170Z,8.54
2018-03-16T11:39:42.162Z,8.43
2018-03-16T11:40:42.164Z,8.41
2018-03-16T11:41:42.193Z,8.39
2018-03-16T11:42:42.198Z,8.41
2018-03-16T11:43:42.184Z,8.45
2018-03-16T11:44:42.200Z,8.3
2018-03-16T11:45:42.206Z,8.36
2018-03-16T11:46:42.229Z,8.36
2018-03-16T11:47:42.208Z,8.2
2018-03-16T11:48:42.211Z,8.2
2018-03-16T11:49:42.211Z,8.19
2018-03-16T11:50:42.230Z,8.28
2018-03-16T11:51:42.235Z,8.36
2018-03-16T11:52:42.282Z,8.36
2018-03-16T11:53:42.354Z,8.19
2018-03-16T11:54:42.224Z,8.24
2018-03-16T11:55:42.288Z,8.24
2018-03-16T11:56:42.263Z,8.25
2018-03-16T11:57:42.222Z,8.26
2018-03-16T11:58:42.237Z,8.25
2018-03-16T11:59:42.522Z,8.27
2018-03-16T12:00:42.247Z,8.25
2018-03-16T12:01:42.272Z,8.2
2018-03-16T12:02:42.251Z,8.15
2018-03-16T12:03:42.270Z,8.18
2018-03-16T12:04:42.246Z,8.14
2018-03-16T12:05:43.202Z,8.11
2018-03-16T12:06:44.021Z,8
2018-03-16T12:07:42.266Z,8.04
2018-03-16T12:08:42.263Z,8.06
2018-03-16T12:09:42.271Z,8.05
2018-03-16T12:10:42.456Z,7.97
2018-03-16T12:11:42.273Z,7.98
2018-03-16T12:12:42.284Z,7.89
2018-03-16T12:13:42.290Z,7.96
2018-03-16T12:14:42.282Z,7.99
2018-03-16T12:15:42.285Z,7.99
2018-03-16T12:16:42.304Z,7.96
2018-03-16T12:17:42.289Z,7.88
2018-03-16T12:18:42.313Z,7.96
2018-03-16T12:19:42.306Z,8.02
2018-03-16T12:20:42.287Z,8.06
2018-03-16T12:21:42.348Z,8
2018-03-16T12:22:42.319Z,7.99
2018-03-16T12:23:42.343Z,8.02
2018-03-16T12:24:42.302Z,8.05
2018-03-16T12:25:42.308Z,7.98
2018-03-16T12:26:42.458Z,8.04
2018-03-16T12:27:42.359Z,7.99
2018-03-16T12:28:50.777Z,7.97
2018-03-16T12:29:42.345Z,7.98
2018-03-16T12:30:42.437Z,7.96
2018-03-16T12:31:42.377Z,7.99
2018-03-16T12:32:42.384Z,7.99
2018-03-16T12:33:42.373Z,7.86
2018-03-16T12:34:42.424Z,7.86
2018-03-16T12:35:42.385Z,7.92
2018-03-16T12:36:42.335Z,7.95
2018-03-16T12:37:42.439Z,7.96
2018-03-16T12:38:42.481Z,7.94
2018-03-16T12:39:42.337Z,7.95
2018-03-16T12:40:42.343Z,8.06
2018-03-16T12:41:42.475Z,7.9
2018-03-16T12:42:42.464Z,7.99
2018-03-16T12:43:42.348Z,7.95
2018-03-16T12:44:42.379Z,7.99
2018-03-16T12:45:42.350Z,7.92
2018-03-16T12:46:42.613Z,8
2018-03-16T12:47:42.376Z,7.92
2018-03-16T12:48:42.360Z,7.9
2018-03-16T12:49:42.392Z,7.84
2018-03-16T12:50:42.366Z,7.86
2018-03-16T12:51:42.773Z,7.9
2018-03-16T12:52:42.425Z,7.86
2018-03-16T12:53:42.426Z,7.83
2018-03-16T12:54:42.386Z,7.86
2018-03-16T12:55:42.374Z,7.88
2018-03-16T12:56:42.461Z,7.97
2018-03-16T12:57:42.479Z,7.82
2018-03-16T12:58:42.470Z,8
2018-03-16T12:59:42.478Z,7.91
2018-03-16T13:00:42.498Z,7.89
2018-03-16T13:01:42.417Z,7.93
2018-03-16T13:02:43.445Z,8
2018-03-16T13:03:42.578Z,7.95
2018-03-16T13:04:42.504Z,7.9
2018-03-16T13:05:42.432Z,7.83
2018-03-16T13:06:42.493Z,7.87
2018-03-16T13:07:42.494Z,7.84
2018-03-16T13:08:42.659Z,7.75
2018-03-16T13:09:42.444Z,7.72
2018-03-16T13:10:42.446Z,7.83
2018-03-16T13:11:42.439Z,7.95
2018-03-16T13:12:42.449Z,8
2018-03-16T13:13:42.469Z,7.86
2018-03-16T13:14:42.481Z,7.75
2018-03-16T13:15:42.451Z,7.7
2018-03-16T13:16:42.482Z,7.68
2018-03-16T13:17:42.553Z,7.73
2018-03-16T13:18:42.492Z,7.62
2018-03-16T13:19:42.472Z,7.61
2018-03-16T13:20:42.522Z,7.62
2018-03-16T13:21:42.500Z,7.69